sensor_id;sensor_type;location;lat;lon;timestamp;P1;durP1;ratioP1;P2;durP2;ratioP2
3613;SDS011;1821;50.936;6.854;2024-01-07T00:00:16;48.50;;;31.50;;
3613;SDS011;1821;50.936;6.854;2024-01-07T00:00:58;49.25;;;31.58;;
3613;SDS011;1821;50.936;6.854;2024-01-07T00:01:45;48.40;;;31.55;;
3613;SDS011;1821;50.936;6.854;2024-01-07T00:02:28;49.78;;;31.00;;
3613;SDS011;1821;50.936;6.854;2024-01-07T00:03:12;50.95;;;31.98;;
3613;SDS011;1821;50.936;6.854;2024-01-07T00:03:54;49.45;;;31.48;;
3613;SDS011;1821;50.936;6.854;2024-01-07T00:04:36;56.22;;;32.88;;
3613;SDS011;1821;50.936;6.854;2024-01-07T00:05:19;52.78;;;31.92;;
3613;SDS011;1821;50.936;6.854;2024-01-07T00:06:01;50.70;;;32.75;;
3613;SDS011;1821;50.936;6.854;2024-01-07T00:06:43;52.85;;;34.13;;
3613;SDS011;1821;50.936;6.854;2024-01-07T00:07:26;49.35;;;31.90;;
3613;SDS011;1821;50.936;6.854;2024-01-07T00:08:08;53.38;;;31.33;;
3613;SDS011;1821;50.936;6.854;2024-01-07T00:08:50;48.72;;;30.00;;
3613;SDS011;1821;50.936;6.854;2024-01-07T00:09:32;50.92;;;29.38;;
3613;SDS011;1821;50.936;6.854;2024-01-07T00:10:15;52.42;;;31.10;;
3613;SDS011;1821;50.936;6.854;2024-01-07T00:10:57;47.97;;;29.67;;
3613;SDS011;1821;50.936;6.854;2024-01-07T00:11:41;48.83;;;30.77;;
3613;SDS011;1821;50.936;6.854;2024-01-07T00:12:23;45.55;;;30.15;;
3613;SDS011;1821;50.936;6.854;2024-01-07T00:13:06;46.83;;;28.80;;
3613;SDS011;1821;50.936;6.854;2024-01-07T00:13:48;48.85;;;29.17;;
3613;SDS011;1821;50.936;6.854;2024-01-07T00:14:31;46.17;;;28.42;;
3613;SDS011;1821;50.936;6.854;2024-01-07T00:15:13;45.63;;;30.45;;
3613;SDS011;1821;50.936;6.854;2024-01-07T00:15:55;47.33;;;29.92;;
3613;SDS011;1821;50.936;6.854;2024-01-07T00:16:37;46.90;;;29.77;;
3613;SDS011;1821;50.936;6.854;2024-01-07T00:17:21;49.28;;;30.48;;
3613;SDS011;1821;50.936;6.854;2024-01-07T00:18:04;47.13;;;30.15;;
3613;SDS011;1821;50.936;6.854;2024-01-07T00:18:46;45.90;;;29.58;;
3613;SDS011;1821;50.936;6.854;2024-01-07T00:19:29;46.58;;;30.08;;
3613;SDS011;1821;50.936;6.854;2024-01-07T00:20:12;47.28;;;29.80;;
3613;SDS011;1821;50.936;6.854;2024-01-07T00:20:55;47.13;;;30.20;;
3613;SDS011;1821;50.936;6.854;2024-01-07T00:21:37;45.83;;;30.65;;
3613;SDS011;1821;50.936;6.854;2024-01-07T00:22:19;45.53;;;28.85;;
3613;SDS011;1821;50.936;6.854;2024-01-07T00:23:01;49.05;;;28.85;;
3613;SDS011;1821;50.936;6.854;2024-01-07T00:23:44;49.40;;;30.17;;
3613;SDS011;1821;50.936;6.854;2024-01-07T00:24:26;46.22;;;29.27;;
3613;SDS011;1821;50.936;6.854;2024-01-07T00:25:10;45.80;;;28.88;;
3613;SDS011;1821;50.936;6.854;2024-01-07T00:25:52;45.72;;;29.65;;
3613;SDS011;1821;50.936;6.854;2024-01-07T00:26:36;43.13;;;28.17;;
3613;SDS011;1821;50.936;6.854;2024-01-07T00:27:18;45.58;;;29.20;;
3613;SDS011;1821;50.936;6.854;2024-01-07T00:28:00;44.97;;;29.38;;
3613;SDS011;1821;50.936;6.854;2024-01-07T00:28:43;44.88;;;29.95;;
3613;SDS011;1821;50.936;6.854;2024-01-07T00:29:25;46.15;;;30.15;;
3613;SDS011;1821;50.936;6.854;2024-01-07T00:30:07;45.78;;;29.83;;
3613;SDS011;1821;50.936;6.854;2024-01-07T00:30:49;49.58;;;31.98;;
3613;SDS011;1821;50.936;6.854;2024-01-07T00:31:32;47.55;;;30.75;;
3613;SDS011;1821;50.936;6.854;2024-01-07T00:32:14;46.15;;;30.73;;
3613;SDS011;1821;50.936;6.854;2024-01-07T00:32:56;50.22;;;31.67;;
3613;SDS011;1821;50.936;6.854;2024-01-07T00:33:39;45.55;;;29.90;;
3613;SDS011;1821;50.936;6.854;2024-01-07T00:34:22;42.45;;;28.83;;
3613;SDS011;1821;50.936;6.854;2024-01-07T00:35:04;46.42;;;29.70;;
3613;SDS011;1821;50.936;6.854;2024-01-07T00:35:46;46.85;;;28.88;;
3613;SDS011;1821;50.936;6.854;2024-01-07T00:36:28;46.95;;;30.20;;
3613;SDS011;1821;50.936;6.854;2024-01-07T00:37:11;45.38;;;29.65;;
3613;SDS011;1821;50.936;6.854;2024-01-07T00:37:53;43.97;;;29.10;;
3613;SDS011;1821;50.936;6.854;2024-01-07T00:38:37;47.58;;;30.10;;
3613;SDS011;1821;50.936;6.854;2024-01-07T00:39:20;43.25;;;28.50;;
3613;SDS011;1821;50.936;6.854;2024-01-07T00:40:03;46.10;;;29.58;;
3613;SDS011;1821;50.936;6.854;2024-01-07T00:40:45;46.33;;;28.98;;
3613;SDS011;1821;50.936;6.854;2024-01-07T00:41:28;46.95;;;28.00;;
3613;SDS011;1821;50.936;6.854;2024-01-07T00:42:11;45.35;;;29.58;;
3613;SDS011;1821;50.936;6.854;2024-01-07T00:42:53;47.30;;;29.13;;
3613;SDS011;1821;50.936;6.854;2024-01-07T00:43:35;41.80;;;29.90;;
3613;SDS011;1821;50.936;6.854;2024-01-07T00:44:18;43.03;;;29.60;;
3613;SDS011;1821;50.936;6.854;2024-01-07T00:45:00;42.67;;;28.67;;
3613;SDS011;1821;50.936;6.854;2024-01-07T00:45:42;42.88;;;27.70;;
3613;SDS011;1821;50.936;6.854;2024-01-07T00:46:24;47.95;;;29.70;;
3613;SDS011;1821;50.936;6.854;2024-01-07T00:47:06;46.00;;;29.48;;
3613;SDS011;1821;50.936;6.854;2024-01-07T00:47:49;48.80;;;30.00;;
3613;SDS011;1821;50.936;6.854;2024-01-07T00:48:31;47.83;;;29.95;;
3613;SDS011;1821;50.936;6.854;2024-01-07T00:49:13;45.80;;;28.98;;
3613;SDS011;1821;50.936;6.854;2024-01-07T00:49:56;47.30;;;28.85;;
3613;SDS011;1821;50.936;6.854;2024-01-07T00:50:38;42.08;;;28.63;;
3613;SDS011;1821;50.936;6.854;2024-01-07T00:51:21;44.55;;;28.90;;
3613;SDS011;1821;50.936;6.854;2024-01-07T00:52:03;45.03;;;27.77;;
3613;SDS011;1821;50.936;6.854;2024-01-07T00:52:45;49.78;;;28.80;;
3613;SDS011;1821;50.936;6.854;2024-01-07T00:53:27;47.15;;;29.88;;
3613;SDS011;1821;50.936;6.854;2024-01-07T00:54:09;48.33;;;29.73;;
3613;SDS011;1821;50.936;6.854;2024-01-07T00:54:52;42.85;;;27.15;;
3613;SDS011;1821;50.936;6.854;2024-01-07T00:55:34;42.83;;;26.27;;
3613;SDS011;1821;50.936;6.854;2024-01-07T00:56:16;46.42;;;28.23;;
3613;SDS011;1821;50.936;6.854;2024-01-07T00:56:59;43.00;;;27.80;;
3613;SDS011;1821;50.936;6.854;2024-01-07T00:57:41;41.00;;;27.35;;
3613;SDS011;1821;50.936;6.854;2024-01-07T00:58:23;42.78;;;26.75;;
3613;SDS011;1821;50.936;6.854;2024-01-07T00:59:05;44.47;;;27.25;;
3613;SDS011;1821;50.936;6.854;2024-01-07T00:59:47;47.42;;;27.90;;
3613;SDS011;1821;50.936;6.854;2024-01-07T01:00:31;41.45;;;26.92;;
3613;SDS011;1821;50.936;6.854;2024-01-07T01:01:13;38.20;;;25.50;;
3613;SDS011;1821;50.936;6.854;2024-01-07T01:01:56;41.80;;;26.95;;
3613;SDS011;1821;50.936;6.854;2024-01-07T01:02:38;43.83;;;27.58;;
3613;SDS011;1821;50.936;6.854;2024-01-07T01:03:20;42.40;;;26.65;;
3613;SDS011;1821;50.936;6.854;2024-01-07T01:04:03;38.33;;;25.33;;
3613;SDS011;1821;50.936;6.854;2024-01-07T01:04:46;42.17;;;26.70;;
3613;SDS011;1821;50.936;6.854;2024-01-07T01:05:28;42.13;;;26.23;;
3613;SDS011;1821;50.936;6.854;2024-01-07T01:06:11;37.80;;;26.13;;
3613;SDS011;1821;50.936;6.854;2024-01-07T01:06:53;40.45;;;27.40;;
3613;SDS011;1821;50.936;6.854;2024-01-07T01:07:36;39.65;;;26.70;;
3613;SDS011;1821;50.936;6.854;2024-01-07T01:08:18;39.08;;;26.05;;
3613;SDS011;1821;50.936;6.854;2024-01-07T01:09:00;44.20;;;26.30;;
3613;SDS011;1821;50.936;6.854;2024-01-07T01:09:42;41.63;;;26.75;;
3613;SDS011;1821;50.936;6.854;2024-01-07T01:10:25;39.92;;;26.42;;
3613;SDS011;1821;50.936;6.854;2024-01-07T01:11:10;43.33;;;26.10;;
3613;SDS011;1821;50.936;6.854;2024-01-07T01:11:53;41.85;;;26.13;;
3613;SDS011;1821;50.936;6.854;2024-01-07T01:12:35;39.13;;;25.35;;
3613;SDS011;1821;50.936;6.854;2024-01-07T01:13:17;40.45;;;23.90;;
3613;SDS011;1821;50.936;6.854;2024-01-07T01:14:00;40.00;;;24.65;;
3613;SDS011;1821;50.936;6.854;2024-01-07T01:14:42;36.92;;;25.88;;
3613;SDS011;1821;50.936;6.854;2024-01-07T01:15:24;36.25;;;24.58;;
3613;SDS011;1821;50.936;6.854;2024-01-07T01:16:06;37.17;;;24.02;;
3613;SDS011;1821;50.936;6.854;2024-01-07T01:16:49;34.92;;;23.80;;
3613;SDS011;1821;50.936;6.854;2024-01-07T01:17:31;36.45;;;24.77;;
3613;SDS011;1821;50.936;6.854;2024-01-07T01:18:13;36.83;;;23.55;;
3613;SDS011;1821;50.936;6.854;2024-01-07T01:18:56;34.38;;;22.55;;
3613;SDS011;1821;50.936;6.854;2024-01-07T01:19:38;34.45;;;23.70;;
3613;SDS011;1821;50.936;6.854;2024-01-07T01:20:20;35.15;;;23.50;;
3613;SDS011;1821;50.936;6.854;2024-01-07T01:21:02;36.15;;;23.27;;
3613;SDS011;1821;50.936;6.854;2024-01-07T01:21:45;33.38;;;22.52;;
3613;SDS011;1821;50.936;6.854;2024-01-07T01:22:28;36.38;;;22.83;;
3613;SDS011;1821;50.936;6.854;2024-01-07T01:23:10;35.95;;;22.95;;
3613;SDS011;1821;50.936;6.854;2024-01-07T01:23:53;34.42;;;22.95;;
3613;SDS011;1821;50.936;6.854;2024-01-07T01:24:36;31.40;;;21.63;;
3613;SDS011;1821;50.936;6.854;2024-01-07T01:25:18;31.33;;;21.13;;
3613;SDS011;1821;50.936;6.854;2024-01-07T01:26:00;30.95;;;21.33;;
3613;SDS011;1821;50.936;6.854;2024-01-07T01:26:43;32.95;;;22.42;;
3613;SDS011;1821;50.936;6.854;2024-01-07T01:27:25;34.22;;;22.65;;
3613;SDS011;1821;50.936;6.854;2024-01-07T01:28:07;31.55;;;21.58;;
3613;SDS011;1821;50.936;6.854;2024-01-07T01:28:50;31.55;;;20.95;;
3613;SDS011;1821;50.936;6.854;2024-01-07T01:29:32;30.33;;;20.38;;
3613;SDS011;1821;50.936;6.854;2024-01-07T01:30:14;30.20;;;20.80;;
3613;SDS011;1821;50.936;6.854;2024-01-07T01:30:56;32.35;;;21.42;;
3613;SDS011;1821;50.936;6.854;2024-01-07T01:31:39;31.80;;;20.50;;
3613;SDS011;1821;50.936;6.854;2024-01-07T01:32:21;32.67;;;21.08;;
3613;SDS011;1821;50.936;6.854;2024-01-07T01:33:03;29.58;;;20.95;;
3613;SDS011;1821;50.936;6.854;2024-01-07T01:33:46;26.30;;;18.77;;
3613;SDS011;1821;50.936;6.854;2024-01-07T01:34:29;30.10;;;20.45;;
3613;SDS011;1821;50.936;6.854;2024-01-07T01:35:11;30.48;;;19.50;;
3613;SDS011;1821;50.936;6.854;2024-01-07T01:35:53;27.15;;;19.85;;
3613;SDS011;1821;50.936;6.854;2024-01-07T01:36:36;27.45;;;19.45;;
3613;SDS011;1821;50.936;6.854;2024-01-07T01:37:18;30.85;;;19.83;;
3613;SDS011;1821;50.936;6.854;2024-01-07T01:38:00;27.55;;;18.90;;
3613;SDS011;1821;50.936;6.854;2024-01-07T01:38:43;26.75;;;18.52;;
3613;SDS011;1821;50.936;6.854;2024-01-07T01:39:25;26.55;;;17.92;;
3613;SDS011;1821;50.936;6.854;2024-01-07T01:40:08;28.33;;;18.02;;
3613;SDS011;1821;50.936;6.854;2024-01-07T01:40:51;30.70;;;19.15;;
3613;SDS011;1821;50.936;6.854;2024-01-07T01:41:33;27.98;;;19.05;;
3613;SDS011;1821;50.936;6.854;2024-01-07T01:42:15;25.67;;;17.60;;
3613;SDS011;1821;50.936;6.854;2024-01-07T01:42:58;25.75;;;17.80;;
3613;SDS011;1821;50.936;6.854;2024-01-07T01:43:40;23.02;;;17.15;;
3613;SDS011;1821;50.936;6.854;2024-01-07T01:44:22;25.13;;;17.05;;
3613;SDS011;1821;50.936;6.854;2024-01-07T01:45:04;24.83;;;17.30;;
3613;SDS011;1821;50.936;6.854;2024-01-07T01:45:47;24.15;;;17.88;;
3613;SDS011;1821;50.936;6.854;2024-01-07T01:46:29;22.42;;;16.52;;
3613;SDS011;1821;50.936;6.854;2024-01-07T01:47:12;22.83;;;16.15;;
3613;SDS011;1821;50.936;6.854;2024-01-07T01:47:54;22.08;;;15.80;;
3613;SDS011;1821;50.936;6.854;2024-01-07T01:48:37;23.80;;;16.17;;
3613;SDS011;1821;50.936;6.854;2024-01-07T01:49:20;26.67;;;17.42;;
3613;SDS011;1821;50.936;6.854;2024-01-07T01:50:03;23.38;;;17.13;;
3613;SDS011;1821;50.936;6.854;2024-01-07T01:50:46;23.05;;;15.88;;
3613;SDS011;1821;50.936;6.854;2024-01-07T01:51:29;24.05;;;16.38;;
3613;SDS011;1821;50.936;6.854;2024-01-07T01:52:12;22.75;;;17.35;;
3613;SDS011;1821;50.936;6.854;2024-01-07T01:52:55;23.85;;;17.42;;
3613;SDS011;1821;50.936;6.854;2024-01-07T01:53:38;23.50;;;16.30;;
3613;SDS011;1821;50.936;6.854;2024-01-07T01:54:20;23.35;;;15.50;;
3613;SDS011;1821;50.936;6.854;2024-01-07T01:55:02;22.25;;;15.60;;
3613;SDS011;1821;50.936;6.854;2024-01-07T01:55:45;20.23;;;14.35;;
3613;SDS011;1821;50.936;6.854;2024-01-07T01:56:27;19.98;;;14.77;;
3613;SDS011;1821;50.936;6.854;2024-01-07T01:57:13;21.08;;;14.90;;
3613;SDS011;1821;50.936;6.854;2024-01-07T01:57:55;20.30;;;14.43;;
3613;SDS011;1821;50.936;6.854;2024-01-07T01:58:41;21.05;;;15.20;;
3613;SDS011;1821;50.936;6.854;2024-01-07T01:59:24;21.23;;;15.73;;
3613;SDS011;1821;50.936;6.854;2024-01-07T02:00:07;20.75;;;14.32;;
3613;SDS011;1821;50.936;6.854;2024-01-07T02:00:50;19.23;;;13.02;;
3613;SDS011;1821;50.936;6.854;2024-01-07T02:01:32;19.73;;;13.95;;
3613;SDS011;1821;50.936;6.854;2024-01-07T02:02:15;22.23;;;14.82;;
3613;SDS011;1821;50.936;6.854;2024-01-07T02:02:58;20.85;;;15.10;;
3613;SDS011;1821;50.936;6.854;2024-01-07T02:03:42;19.85;;;14.60;;
3613;SDS011;1821;50.936;6.854;2024-01-07T02:04:24;20.73;;;14.43;;
3613;SDS011;1821;50.936;6.854;2024-01-07T02:05:07;19.98;;;15.00;;
3613;SDS011;1821;50.936;6.854;2024-01-07T02:05:49;20.33;;;15.45;;
3613;SDS011;1821;50.936;6.854;2024-01-07T02:06:32;20.65;;;13.82;;
3613;SDS011;1821;50.936;6.854;2024-01-07T02:07:14;18.60;;;13.20;;
3613;SDS011;1821;50.936;6.854;2024-01-07T02:07:56;17.70;;;13.63;;
3613;SDS011;1821;50.936;6.854;2024-01-07T02:08:39;18.85;;;13.93;;
3613;SDS011;1821;50.936;6.854;2024-01-07T02:09:23;18.27;;;13.40;;
3613;SDS011;1821;50.936;6.854;2024-01-07T02:10:06;21.15;;;14.27;;
3613;SDS011;1821;50.936;6.854;2024-01-07T02:10:48;20.90;;;13.90;;
3613;SDS011;1821;50.936;6.854;2024-01-07T02:11:31;18.33;;;13.55;;
3613;SDS011;1821;50.936;6.854;2024-01-07T02:12:13;17.73;;;13.43;;
3613;SDS011;1821;50.936;6.854;2024-01-07T02:12:57;20.38;;;14.02;;
3613;SDS011;1821;50.936;6.854;2024-01-07T02:13:39;18.52;;;12.75;;
3613;SDS011;1821;50.936;6.854;2024-01-07T02:14:21;16.85;;;12.18;;
3613;SDS011;1821;50.936;6.854;2024-01-07T02:15:04;17.60;;;13.55;;
3613;SDS011;1821;50.936;6.854;2024-01-07T02:15:46;18.70;;;13.50;;
3613;SDS011;1821;50.936;6.854;2024-01-07T02:16:29;19.13;;;13.20;;
3613;SDS011;1821;50.936;6.854;2024-01-07T02:17:11;15.95;;;12.25;;
3613;SDS011;1821;50.936;6.854;2024-01-07T02:17:53;15.15;;;11.57;;
3613;SDS011;1821;50.936;6.854;2024-01-07T02:18:36;15.43;;;12.02;;
3613;SDS011;1821;50.936;6.854;2024-01-07T02:19:19;17.27;;;12.68;;
3613;SDS011;1821;50.936;6.854;2024-01-07T02:20:02;17.23;;;11.85;;
3613;SDS011;1821;50.936;6.854;2024-01-07T02:20:45;17.00;;;11.90;;
3613;SDS011;1821;50.936;6.854;2024-01-07T02:21:27;16.13;;;11.98;;
3613;SDS011;1821;50.936;6.854;2024-01-07T02:22:10;15.52;;;11.25;;
3613;SDS011;1821;50.936;6.854;2024-01-07T02:22:52;15.65;;;11.93;;
3613;SDS011;1821;50.936;6.854;2024-01-07T02:23:35;16.63;;;12.63;;
3613;SDS011;1821;50.936;6.854;2024-01-07T02:24:17;17.77;;;12.55;;
3613;SDS011;1821;50.936;6.854;2024-01-07T02:25:00;16.40;;;12.27;;
3613;SDS011;1821;50.936;6.854;2024-01-07T02:25:42;15.30;;;11.73;;
3613;SDS011;1821;50.936;6.854;2024-01-07T02:26:24;15.55;;;12.00;;
3613;SDS011;1821;50.936;6.854;2024-01-07T02:27:07;16.60;;;12.30;;
3613;SDS011;1821;50.936;6.854;2024-01-07T02:27:49;16.48;;;12.05;;
3613;SDS011;1821;50.936;6.854;2024-01-07T02:28:32;16.10;;;12.40;;
3613;SDS011;1821;50.936;6.854;2024-01-07T02:29:14;14.45;;;11.70;;
3613;SDS011;1821;50.936;6.854;2024-01-07T02:29:56;16.23;;;12.18;;
3613;SDS011;1821;50.936;6.854;2024-01-07T02:30:39;16.45;;;12.20;;
3613;SDS011;1821;50.936;6.854;2024-01-07T02:31:21;15.90;;;11.93;;
3613;SDS011;1821;50.936;6.854;2024-01-07T02:32:06;15.50;;;12.10;;
3613;SDS011;1821;50.936;6.854;2024-01-07T02:32:48;15.80;;;12.00;;
3613;SDS011;1821;50.936;6.854;2024-01-07T02:33:30;16.30;;;12.25;;
3613;SDS011;1821;50.936;6.854;2024-01-07T02:34:13;15.00;;;11.38;;
3613;SDS011;1821;50.936;6.854;2024-01-07T02:34:56;15.45;;;11.63;;
3613;SDS011;1821;50.936;6.854;2024-01-07T02:35:41;16.88;;;12.70;;
3613;SDS011;1821;50.936;6.854;2024-01-07T02:36:24;17.40;;;12.90;;
3613;SDS011;1821;50.936;6.854;2024-01-07T02:37:06;16.98;;;12.40;;
3613;SDS011;1821;50.936;6.854;2024-01-07T02:37:48;16.05;;;11.50;;
3613;SDS011;1821;50.936;6.854;2024-01-07T02:38:31;15.02;;;12.20;;
3613;SDS011;1821;50.936;6.854;2024-01-07T02:39:13;15.25;;;12.75;;
3613;SDS011;1821;50.936;6.854;2024-01-07T02:39:55;14.02;;;11.68;;
3613;SDS011;1821;50.936;6.854;2024-01-07T02:40:42;14.70;;;11.63;;
3613;SDS011;1821;50.936;6.854;2024-01-07T02:41:25;16.02;;;11.40;;
3613;SDS011;1821;50.936;6.854;2024-01-07T02:42:08;16.33;;;11.77;;
3613;SDS011;1821;50.936;6.854;2024-01-07T02:42:50;16.17;;;11.85;;
3613;SDS011;1821;50.936;6.854;2024-01-07T02:43:33;16.15;;;12.02;;
3613;SDS011;1821;50.936;6.854;2024-01-07T02:44:15;15.15;;;12.20;;
3613;SDS011;1821;50.936;6.854;2024-01-07T02:44:57;16.42;;;12.68;;
3613;SDS011;1821;50.936;6.854;2024-01-07T02:45:42;14.68;;;12.48;;
3613;SDS011;1821;50.936;6.854;2024-01-07T02:46:24;13.38;;;10.85;;
3613;SDS011;1821;50.936;6.854;2024-01-07T02:47:06;16.13;;;11.65;;
3613;SDS011;1821;50.936;6.854;2024-01-07T02:47:48;15.70;;;12.00;;
3613;SDS011;1821;50.936;6.854;2024-01-07T02:48:31;14.48;;;11.55;;
3613;SDS011;1821;50.936;6.854;2024-01-07T02:49:13;16.60;;;12.38;;
3613;SDS011;1821;50.936;6.854;2024-01-07T02:49:56;14.93;;;11.85;;
3613;SDS011;1821;50.936;6.854;2024-01-07T02:50:38;16.45;;;12.20;;
3613;SDS011;1821;50.936;6.854;2024-01-07T02:51:20;16.25;;;11.88;;
3613;SDS011;1821;50.936;6.854;2024-01-07T02:52:03;16.45;;;12.82;;
3613;SDS011;1821;50.936;6.854;2024-01-07T02:52:45;16.58;;;13.75;;
3613;SDS011;1821;50.936;6.854;2024-01-07T02:53:28;18.42;;;14.23;;
3613;SDS011;1821;50.936;6.854;2024-01-07T02:54:10;16.45;;;13.10;;
3613;SDS011;1821;50.936;6.854;2024-01-07T02:54:52;15.65;;;13.30;;
3613;SDS011;1821;50.936;6.854;2024-01-07T02:55:36;16.92;;;12.68;;
3613;SDS011;1821;50.936;6.854;2024-01-07T02:56:19;17.05;;;13.35;;
3613;SDS011;1821;50.936;6.854;2024-01-07T02:57:01;15.68;;;12.85;;
3613;SDS011;1821;50.936;6.854;2024-01-07T02:57:43;17.80;;;12.93;;
3613;SDS011;1821;50.936;6.854;2024-01-07T02:58:25;17.20;;;13.80;;
3613;SDS011;1821;50.936;6.854;2024-01-07T02:59:08;15.32;;;13.10;;
3613;SDS011;1821;50.936;6.854;2024-01-07T02:59:50;17.67;;;13.25;;
3613;SDS011;1821;50.936;6.854;2024-01-07T03:00:32;18.92;;;13.75;;
3613;SDS011;1821;50.936;6.854;2024-01-07T03:01:15;18.50;;;13.35;;
3613;SDS011;1821;50.936;6.854;2024-01-07T03:02:00;17.98;;;14.20;;
3613;SDS011;1821;50.936;6.854;2024-01-07T03:02:42;16.73;;;14.45;;
3613;SDS011;1821;50.936;6.854;2024-01-07T03:03:24;18.27;;;14.98;;
3613;SDS011;1821;50.936;6.854;2024-01-07T03:04:07;18.13;;;14.20;;
3613;SDS011;1821;50.936;6.854;2024-01-07T03:04:50;16.50;;;13.00;;
3613;SDS011;1821;50.936;6.854;2024-01-07T03:05:32;17.88;;;13.63;;
3613;SDS011;1821;50.936;6.854;2024-01-07T03:06:15;19.92;;;14.52;;
3613;SDS011;1821;50.936;6.854;2024-01-07T03:06:57;18.80;;;14.15;;
3613;SDS011;1821;50.936;6.854;2024-01-07T03:07:40;18.40;;;14.02;;
3613;SDS011;1821;50.936;6.854;2024-01-07T03:08:22;19.15;;;14.35;;
3613;SDS011;1821;50.936;6.854;2024-01-07T03:09:05;19.50;;;14.57;;
3613;SDS011;1821;50.936;6.854;2024-01-07T03:09:48;19.73;;;14.32;;
3613;SDS011;1821;50.936;6.854;2024-01-07T03:10:30;18.67;;;13.70;;
3613;SDS011;1821;50.936;6.854;2024-01-07T03:11:12;18.42;;;13.38;;
3613;SDS011;1821;50.936;6.854;2024-01-07T03:11:55;18.80;;;14.52;;
3613;SDS011;1821;50.936;6.854;2024-01-07T03:12:37;18.92;;;14.40;;
3613;SDS011;1821;50.936;6.854;2024-01-07T03:13:19;19.08;;;13.88;;
3613;SDS011;1821;50.936;6.854;2024-01-07T03:14:01;17.52;;;14.02;;
3613;SDS011;1821;50.936;6.854;2024-01-07T03:14:44;17.98;;;13.85;;
3613;SDS011;1821;50.936;6.854;2024-01-07T03:15:26;18.13;;;13.00;;
3613;SDS011;1821;50.936;6.854;2024-01-07T03:16:18;18.40;;;14.38;;
3613;SDS011;1821;50.936;6.854;2024-01-07T03:17:01;16.95;;;13.13;;
3613;SDS011;1821;50.936;6.854;2024-01-07T03:17:43;19.70;;;13.10;;
3613;SDS011;1821;50.936;6.854;2024-01-07T03:18:29;18.92;;;13.88;;
3613;SDS011;1821;50.936;6.854;2024-01-07T03:19:11;17.30;;;12.90;;
3613;SDS011;1821;50.936;6.854;2024-01-07T03:19:54;16.40;;;13.35;;
3613;SDS011;1821;50.936;6.854;2024-01-07T03:20:37;18.17;;;14.10;;
3613;SDS011;1821;50.936;6.854;2024-01-07T03:21:20;17.25;;;13.55;;
3613;SDS011;1821;50.936;6.854;2024-01-07T03:22:02;18.05;;;14.02;;
3613;SDS011;1821;50.936;6.854;2024-01-07T03:22:45;17.65;;;13.50;;
3613;SDS011;1821;50.936;6.854;2024-01-07T03:23:27;20.10;;;14.23;;
3613;SDS011;1821;50.936;6.854;2024-01-07T03:24:10;20.25;;;14.27;;
3613;SDS011;1821;50.936;6.854;2024-01-07T03:24:52;19.60;;;14.07;;
3613;SDS011;1821;50.936;6.854;2024-01-07T03:25:34;18.08;;;14.05;;
3613;SDS011;1821;50.936;6.854;2024-01-07T03:26:17;18.90;;;14.40;;
3613;SDS011;1821;50.936;6.854;2024-01-07T03:27:00;17.08;;;13.77;;
3613;SDS011;1821;50.936;6.854;2024-01-07T03:27:42;17.90;;;14.48;;
3613;SDS011;1821;50.936;6.854;2024-01-07T03:28:25;20.70;;;14.73;;
3613;SDS011;1821;50.936;6.854;2024-01-07T03:29:07;19.67;;;14.20;;
3613;SDS011;1821;50.936;6.854;2024-01-07T03:29:49;18.55;;;13.43;;
3613;SDS011;1821;50.936;6.854;2024-01-07T03:30:32;18.05;;;13.00;;
3613;SDS011;1821;50.936;6.854;2024-01-07T03:31:15;18.38;;;14.60;;
3613;SDS011;1821;50.936;6.854;2024-01-07T03:31:58;17.75;;;13.90;;
3613;SDS011;1821;50.936;6.854;2024-01-07T03:32:40;17.67;;;13.70;;
3613;SDS011;1821;50.936;6.854;2024-01-07T03:33:23;16.67;;;13.32;;
3613;SDS011;1821;50.936;6.854;2024-01-07T03:34:05;19.02;;;13.60;;
3613;SDS011;1821;50.936;6.854;2024-01-07T03:34:48;16.98;;;13.20;;
3613;SDS011;1821;50.936;6.854;2024-01-07T03:35:30;17.73;;;13.55;;
3613;SDS011;1821;50.936;6.854;2024-01-07T03:36:13;19.45;;;13.60;;
3613;SDS011;1821;50.936;6.854;2024-01-07T03:36:55;18.98;;;13.77;;
3613;SDS011;1821;50.936;6.854;2024-01-07T03:37:38;17.33;;;13.07;;
3613;SDS011;1821;50.936;6.854;2024-01-07T03:38:20;18.58;;;14.07;;
3613;SDS011;1821;50.936;6.854;2024-01-07T03:39:03;18.80;;;14.07;;
3613;SDS011;1821;50.936;6.854;2024-01-07T03:39:47;20.27;;;13.93;;
3613;SDS011;1821;50.936;6.854;2024-01-07T03:40:29;19.73;;;13.68;;
3613;SDS011;1821;50.936;6.854;2024-01-07T03:41:17;18.92;;;13.50;;
3613;SDS011;1821;50.936;6.854;2024-01-07T03:42:00;16.83;;;13.23;;
3613;SDS011;1821;50.936;6.854;2024-01-07T03:42:42;18.92;;;13.52;;
3613;SDS011;1821;50.936;6.854;2024-01-07T03:43:24;16.48;;;13.70;;
3613;SDS011;1821;50.936;6.854;2024-01-07T03:44:07;18.88;;;14.07;;
3613;SDS011;1821;50.936;6.854;2024-01-07T03:44:49;18.52;;;14.50;;
3613;SDS011;1821;50.936;6.854;2024-01-07T03:45:31;17.30;;;13.05;;
3613;SDS011;1821;50.936;6.854;2024-01-07T03:46:14;17.60;;;13.82;;
3613;SDS011;1821;50.936;6.854;2024-01-07T03:46:56;19.05;;;14.40;;
3613;SDS011;1821;50.936;6.854;2024-01-07T03:47:39;18.65;;;13.43;;
3613;SDS011;1821;50.936;6.854;2024-01-07T03:48:22;17.73;;;12.95;;
3613;SDS011;1821;50.936;6.854;2024-01-07T03:49:04;17.27;;;13.18;;
3613;SDS011;1821;50.936;6.854;2024-01-07T03:49:47;18.80;;;13.32;;
3613;SDS011;1821;50.936;6.854;2024-01-07T03:50:29;19.83;;;14.50;;
3613;SDS011;1821;50.936;6.854;2024-01-07T03:51:11;19.67;;;14.82;;
3613;SDS011;1821;50.936;6.854;2024-01-07T03:51:54;17.67;;;13.48;;
3613;SDS011;1821;50.936;6.854;2024-01-07T03:52:36;18.90;;;14.63;;
3613;SDS011;1821;50.936;6.854;2024-01-07T03:53:18;19.35;;;14.77;;
3613;SDS011;1821;50.936;6.854;2024-01-07T03:54:01;19.23;;;15.07;;
3613;SDS011;1821;50.936;6.854;2024-01-07T03:54:43;20.20;;;15.90;;
3613;SDS011;1821;50.936;6.854;2024-01-07T03:55:25;20.63;;;14.80;;
3613;SDS011;1821;50.936;6.854;2024-01-07T03:56:08;20.55;;;14.82;;
3613;SDS011;1821;50.936;6.854;2024-01-07T03:56:50;18.95;;;14.50;;
3613;SDS011;1821;50.936;6.854;2024-01-07T03:57:35;20.60;;;14.55;;
3613;SDS011;1821;50.936;6.854;2024-01-07T03:58:17;19.60;;;13.85;;
3613;SDS011;1821;50.936;6.854;2024-01-07T03:58:59;18.77;;;13.60;;
3613;SDS011;1821;50.936;6.854;2024-01-07T03:59:42;17.85;;;14.00;;
3613;SDS011;1821;50.936;6.854;2024-01-07T04:00:24;19.50;;;14.90;;
3613;SDS011;1821;50.936;6.854;2024-01-07T04:01:06;19.55;;;14.82;;
3613;SDS011;1821;50.936;6.854;2024-01-07T04:01:49;20.08;;;14.70;;
3613;SDS011;1821;50.936;6.854;2024-01-07T04:02:31;19.60;;;15.38;;
3613;SDS011;1821;50.936;6.854;2024-01-07T04:03:13;19.95;;;14.70;;
3613;SDS011;1821;50.936;6.854;2024-01-07T04:03:56;20.92;;;15.40;;
3613;SDS011;1821;50.936;6.854;2024-01-07T04:04:38;20.00;;;14.90;;
3613;SDS011;1821;50.936;6.854;2024-01-07T04:05:20;22.05;;;16.30;;
3613;SDS011;1821;50.936;6.854;2024-01-07T04:06:06;21.85;;;16.00;;
3613;SDS011;1821;50.936;6.854;2024-01-07T04:06:49;23.73;;;17.15;;
3613;SDS011;1821;50.936;6.854;2024-01-07T04:07:31;21.08;;;16.60;;
3613;SDS011;1821;50.936;6.854;2024-01-07T04:08:13;21.40;;;16.40;;
3613;SDS011;1821;50.936;6.854;2024-01-07T04:08:58;24.23;;;17.58;;
3613;SDS011;1821;50.936;6.854;2024-01-07T04:09:42;23.48;;;16.60;;
3613;SDS011;1821;50.936;6.854;2024-01-07T04:10:25;25.60;;;17.67;;
3613;SDS011;1821;50.936;6.854;2024-01-07T04:11:08;23.42;;;17.00;;
3613;SDS011;1821;50.936;6.854;2024-01-07T04:11:50;22.30;;;16.63;;
3613;SDS011;1821;50.936;6.854;2024-01-07T04:12:32;24.38;;;17.45;;
3613;SDS011;1821;50.936;6.854;2024-01-07T04:13:15;25.20;;;17.63;;
3613;SDS011;1821;50.936;6.854;2024-01-07T04:13:57;26.20;;;18.02;;
3613;SDS011;1821;50.936;6.854;2024-01-07T04:14:40;27.05;;;18.88;;
3613;SDS011;1821;50.936;6.854;2024-01-07T04:15:22;25.95;;;17.85;;
3613;SDS011;1821;50.936;6.854;2024-01-07T04:16:05;27.00;;;18.88;;
3613;SDS011;1821;50.936;6.854;2024-01-07T04:16:47;27.08;;;19.98;;